Campanya meteocatpedra

Dades de l'estació automàtica els Alamús

?
?
Resum diari 21:00 TU
Dades diàries de l'estació meteorològica
Temperatura mitjana 24.3 °C
Temperatura màxima 32.4 °C 15:31 TU
Temperatura mínima 15.8 °C 3:15 TU
Humitat relativa mitjana 66%
Precipitació acumulada 0.0 mm
Ratxa màxima del vent (2 m) 16.6 km/h - 237º 16:28 TU

El tram horari està expressat en Temps Universal (TU). Cal sumar una hora en horari d'hivern i dues en horari d'estiu per passar a l'hora oficial.

els Alamús

Metadades estació meteorol´gica
Municipi Els Alamús
Comarca Segrià
Altitud 235 m
Data alta 22.06.2011
Estat actual Operativa
Dades de període
Període
TU
TM
°C
TX
°C
TN
°C
HRM
%
PPT
mm
VVM (2 m)
km/h
DVM (2 m)
graus
VVX (2 m)
km/h
00:00 - 00:30 17.5 17.7 17.4 89 0.0 2.5 57 5.8
00:30 - 01:00 17.6 17.7 17.4 88 0.0 2.9 73 6.1
01:00 - 01:30 17.5 17.6 17.3 89 0.0 2.2 61 5.4
01:30 - 02:00 17.2 17.3 17.1 90 0.0 1.8 81 4.0
02:00 - 02:30 17.1 17.2 16.9 89 0.0 2.9 104 5.4
02:30 - 03:00 16.6 16.9 16.3 91 0.0 1.8 139 5.0
03:00 - 03:30 16.0 16.2 15.8 94 0.0 0.7 85 2.9
03:30 - 04:00 16.7 16.9 16.0 91 0.0 2.5 71 5.4
04:00 - 04:30 17.0 17.1 16.8 90 0.0 2.9 72 5.8
04:30 - 05:00 17.2 17.4 17.1 90 0.0 1.8 56 4.3
05:00 - 05:30 17.9 18.5 17.4 89 0.0 1.8 92 4.7
05:30 - 06:00 19.0 19.6 18.5 87 0.0 1.1 80 4.0
06:00 - 06:30 20.1 20.4 19.6 83 0.0 1.8 78 5.4
06:30 - 07:00 20.9 21.2 20.4 80 0.0 2.5 40 7.6
07:00 - 07:30 21.8 22.5 21.2 76 0.0 1.8 30 4.3
07:30 - 08:00 22.8 23.0 22.5 70 0.0 3.2 26 7.9
08:00 - 08:30 23.3 24.2 22.6 68 0.0 4.7 36 10.8
08:30 - 09:00 25.3 26.0 24.4 63 0.0 2.9 346 7.9
09:00 - 09:30 25.9 26.6 25.6 60 0.0 3.2 189 13.0
09:30 - 10:00 26.4 27.3 25.4 60 0.0 4.3 306 13.7
10:00 - 10:30 26.6 27.3 26.0 59 0.0 3.6 243 12.2
10:30 - 11:00 27.5 28.3 26.9 56 0.0 3.2 203 9.7
11:00 - 11:30 27.8 28.3 27.2 56 0.0 4.0 274 12.2
11:30 - 12:00 28.3 29.0 27.5 55 0.0 3.6 277 14.4
12:00 - 12:30 29.1 29.7 28.3 51 0.0 3.2 271 11.2
12:30 - 13:00 29.7 30.8 28.9 49 0.0 3.6 279 9.7
13:00 - 13:30 30.1 30.8 29.5 48 0.0 3.6 269 15.1
13:30 - 14:00 30.3 30.7 29.7 46 0.0 4.7 274 12.6
14:00 - 14:30 30.9 31.4 30.3 42 0.0 4.3 273 15.1
14:30 - 15:00 31.6 32.1 31.0 36 0.0 3.6 271 12.6
15:00 - 15:30 31.7 32.1 31.5 33 0.0 3.6 277 12.2
15:30 - 16:00 32.1 32.4 31.3 28 0.0 4.0 269 12.2
16:00 - 16:30 31.5 31.9 31.1 33 0.0 5.4 258 16.6
16:30 - 17:00 31.5 31.9 31.0 35 0.0 5.4 256 15.1
17:00 - 17:30 30.0 31.0 29.4 47 0.0 4.7 211 14.0
17:30 - 18:00 29.6 30.0 29.3 49 0.0 4.3 203 12.6
18:00 - 18:30 28.8 29.4 28.1 52 0.0 2.9 191 9.0
18:30 - 19:00 27.5 28.1 26.7 56 0.0 2.5 194 9.4
19:00 - 19:30 26.0 26.6 25.4 62 0.0 2.5 187 8.3
19:30 - 20:00 24.3 25.4 23.5 69 0.0 1.8 164 5.8
20:00 - 20:30 23.1 24.0 22.1 75 0.0 1.8 143 6.1
20:30 - 21:00 21.9 22.3 21.6 79 0.0 1.4 26 5.0
21:00 - 21:30 21.6 21.9 21.3 79 0.0 2.5 68 7.6
21:30 - 22:00 (s/d) (s/d) (s/d) (s/d) (s/d) (s/d) (s/d) (s/d)

Les dades en taronja només han passat un control de qualitat automàtic. Resta pendent la seva validació definitiva.